createdAt,value
2018-12-27T00:00:29.638Z,39.70
2018-12-27T00:02:55.386Z,43.57
2018-12-27T00:05:21.144Z,45.10
2018-12-27T00:07:46.907Z,42.90
2018-12-27T00:10:12.689Z,45.93
2018-12-27T00:12:38.444Z,42.30
2018-12-27T00:15:45.878Z,43.67
2018-12-27T00:18:11.637Z,40.07
2018-12-27T00:20:37.403Z,44.97
2018-12-27T00:23:03.163Z,43.97
2018-12-27T00:25:28.920Z,48.03
2018-12-27T00:27:54.815Z,49.80
2018-12-27T00:30:20.609Z,49.07
2018-12-27T00:32:46.361Z,53.70
2018-12-27T00:35:12.123Z,52.60
2018-12-27T00:37:37.893Z,62.17
2018-12-27T00:40:03.669Z,57.97
2018-12-27T00:42:29.419Z,64.70
2018-12-27T00:44:55.181Z,66.07
2018-12-27T00:47:20.941Z,64.33
2018-12-27T00:49:46.704Z,73.60
2018-12-27T00:52:12.477Z,78.23
2018-12-27T00:54:38.262Z,79.20
2018-12-27T00:57:04.029Z,71.40
2018-12-27T00:59:29.792Z,77.17
2018-12-27T01:01:55.568Z,95.23
2018-12-27T01:04:21.339Z,82.20
2018-12-27T01:06:47.111Z,90.60
2018-12-27T01:09:12.875Z,94.33
2018-12-27T01:11:38.652Z,98.50
2018-12-27T01:14:04.408Z,87.13
2018-12-27T01:16:30.173Z,96.33
2018-12-27T01:18:55.940Z,101.00
2018-12-27T01:21:21.722Z,104.40
2018-12-27T01:23:47.460Z,104.60
2018-12-27T01:26:13.227Z,103.50
2018-12-27T01:28:38.985Z,108.20
2018-12-27T01:31:04.752Z,94.07
2018-12-27T01:33:30.505Z,114.13
2018-12-27T01:35:56.279Z,118.50
2018-12-27T01:38:22.039Z,122.17
2018-12-27T01:40:47.803Z,114.77
2018-12-27T01:43:13.585Z,109.90
2018-12-27T01:45:59.260Z,121.43
2018-12-27T01:48:25.029Z,110.50
2018-12-27T01:50:50.783Z,137.53
2018-12-27T01:53:16.546Z,133.43
2018-12-27T01:55:42.308Z,118.60
2018-12-27T01:58:08.094Z,126.60
2018-12-27T02:00:33.853Z,121.07
2018-12-27T02:02:59.640Z,124.07
2018-12-27T02:05:25.385Z,134.07
2018-12-27T02:07:51.158Z,115.43
2018-12-27T02:10:16.906Z,130.37
2018-12-27T02:12:42.677Z,133.93
2018-12-27T02:15:08.424Z,129.80
2018-12-27T02:17:34.197Z,117.00
2018-12-27T02:19:59.946Z,117.50
2018-12-27T02:22:25.710Z,119.30
2018-12-27T02:24:51.464Z,117.27
2018-12-27T02:27:17.235Z,110.10
2018-12-27T02:29:42.989Z,113.37
2018-12-27T02:32:08.757Z,99.43
2018-12-27T02:34:34.513Z,114.10
2018-12-27T02:37:00.274Z,105.03
2018-12-27T02:39:26.028Z,110.00
2018-12-27T02:41:51.789Z,112.83
2018-12-27T02:44:17.557Z,117.20
2018-12-27T02:46:43.305Z,116.47
2018-12-27T02:49:09.072Z,109.37
2018-12-27T02:51:34.841Z,114.40
2018-12-27T02:54:00.608Z,112.50
2018-12-27T02:56:26.377Z,139.63
2018-12-27T02:58:52.172Z,111.43
2018-12-27T03:01:17.926Z,114.97
2018-12-27T03:03:44.222Z,110.70
2018-12-27T03:06:31.240Z,125.73
2018-12-27T03:08:57.013Z,108.53
2018-12-27T03:11:22.792Z,118.83
2018-12-27T03:13:48.569Z,105.07
2018-12-27T03:16:14.337Z,140.50
2018-12-27T03:18:40.106Z,117.40
2018-12-27T03:21:05.870Z,115.00
2018-12-27T03:23:31.642Z,123.37
2018-12-27T03:25:57.403Z,131.83
2018-12-27T03:28:23.174Z,121.13
2018-12-27T03:30:48.935Z,126.93
2018-12-27T03:33:14.717Z,136.43
2018-12-27T03:35:40.463Z,145.93
2018-12-27T03:38:06.219Z,150.17
2018-12-27T03:40:31.985Z,151.17
2018-12-27T03:42:57.742Z,148.80
2018-12-27T03:45:23.513Z,133.57
2018-12-27T03:47:49.273Z,150.27
2018-12-27T03:50:15.151Z,132.77
2018-12-27T03:52:40.921Z,135.50
2018-12-27T03:55:06.686Z,135.67
2018-12-27T03:57:32.467Z,145.00
2018-12-27T03:59:58.240Z,109.87
2018-12-27T04:02:23.997Z,129.60
2018-12-27T04:04:49.778Z,118.33
2018-12-27T04:07:15.543Z,119.83
2018-12-27T04:09:41.312Z,130.80
2018-12-27T04:12:07.067Z,118.87
2018-12-27T04:14:32.815Z,115.00
2018-12-27T04:16:58.575Z,119.17
2018-12-27T04:19:24.338Z,106.67
2018-12-27T04:21:50.104Z,124.93
2018-12-27T04:27:29.094Z,108.13
2018-12-27T04:29:54.891Z,100.90
2018-12-27T04:32:20.748Z,103.77
2018-12-27T04:34:46.599Z,96.37
2018-12-27T04:37:12.360Z,101.80
2018-12-27T04:39:38.117Z,95.43
2018-12-27T04:42:03.895Z,91.37
2018-12-27T04:44:29.757Z,97.53
2018-12-27T04:46:55.536Z,77.50
2018-12-27T04:49:21.299Z,82.67
2018-12-27T04:51:47.084Z,92.80
2018-12-27T04:54:12.852Z,82.57
2018-12-27T04:56:38.637Z,78.30
2018-12-27T04:59:04.429Z,73.27
2018-12-27T05:01:30.202Z,73.10
2018-12-27T05:03:55.953Z,77.70
2018-12-27T05:06:21.728Z,72.73
2018-12-27T05:08:47.504Z,69.07
2018-12-27T05:11:13.283Z,81.43
2018-12-27T05:13:39.043Z,70.30
2018-12-27T05:16:04.817Z,75.50
2018-12-27T05:18:30.583Z,73.93
2018-12-27T05:20:56.349Z,66.77
2018-12-27T05:23:22.137Z,72.57
2018-12-27T05:25:47.892Z,70.27
2018-12-27T05:28:13.673Z,74.77
2018-12-27T05:30:39.422Z,84.00
2018-12-27T05:33:05.757Z,74.90
2018-12-27T05:35:31.505Z,76.50
2018-12-27T05:37:57.282Z,70.07
2018-12-27T05:40:23.037Z,77.63
2018-12-27T05:42:48.829Z,75.77
2018-12-27T05:45:14.574Z,88.20
2018-12-27T05:47:40.341Z,66.77
2018-12-27T05:50:06.101Z,73.63
2018-12-27T05:52:31.883Z,70.83
2018-12-27T05:54:57.643Z,75.03
2018-12-27T05:57:23.617Z,75.67
2018-12-27T05:59:49.378Z,73.07
2018-12-27T06:02:15.163Z,77.00
2018-12-27T06:04:40.917Z,80.17
2018-12-27T06:07:06.673Z,66.70
2018-12-27T06:09:32.449Z,82.20
2018-12-27T06:11:58.227Z,79.03
2018-12-27T06:14:24.012Z,90.20
2018-12-27T06:16:49.784Z,78.60
2018-12-27T06:19:15.552Z,78.73
2018-12-27T06:21:41.326Z,77.70
2018-12-27T06:24:07.102Z,80.77
2018-12-27T06:26:32.880Z,82.60
2018-12-27T06:28:58.659Z,66.53
2018-12-27T06:31:24.412Z,68.00
2018-12-27T06:33:50.184Z,69.60
2018-12-27T06:36:15.951Z,72.20
2018-12-27T06:38:41.707Z,75.67
2018-12-27T06:41:07.463Z,66.53
2018-12-27T06:43:33.247Z,65.83
2018-12-27T06:45:59.020Z,68.27
2018-12-27T06:48:24.799Z,68.53
2018-12-27T06:50:50.567Z,68.43
2018-12-27T06:53:16.337Z,73.03
2018-12-27T06:56:01.992Z,61.13
2018-12-27T06:58:27.776Z,61.17
2018-12-27T07:00:53.526Z,66.67
2018-12-27T07:03:19.307Z,62.80
2018-12-27T07:05:45.195Z,73.23
2018-12-27T07:08:10.958Z,70.43
2018-12-27T07:10:36.736Z,69.20
2018-12-27T07:13:02.481Z,58.63
2018-12-27T07:15:28.251Z,69.13
2018-12-27T07:17:54.018Z,70.00
2018-12-27T07:20:19.803Z,65.60
2018-12-27T07:22:45.578Z,63.73
2018-12-27T07:25:11.341Z,73.80
2018-12-27T07:27:37.123Z,80.40
2018-12-27T07:30:44.554Z,79.30
2018-12-27T07:33:10.305Z,75.63
2018-12-27T07:35:36.065Z,69.87
2018-12-27T07:38:01.823Z,70.97
2018-12-27T07:40:27.610Z,98.83
2018-12-27T07:42:53.361Z,70.87
2018-12-27T07:45:19.133Z,87.43
2018-12-27T07:47:44.885Z,95.43
2018-12-27T07:50:10.653Z,98.80
2018-12-27T07:52:36.410Z,112.27
2018-12-27T07:55:43.849Z,122.23
2018-12-27T07:58:09.623Z,119.87
2018-12-27T08:00:35.395Z,121.80
2018-12-27T08:03:01.164Z,117.77
2018-12-27T08:05:26.939Z,146.33
2018-12-27T08:07:52.691Z,147.53
2018-12-27T08:10:18.445Z,134.40
2018-12-27T08:12:44.228Z,132.17
2018-12-27T08:15:09.985Z,161.27
2018-12-27T08:17:35.772Z,190.60
2018-12-27T08:23:08.745Z,173.37
2018-12-27T08:25:34.501Z,124.30
2018-12-27T08:28:00.283Z,154.07
2018-12-27T08:30:26.061Z,160.50
2018-12-27T08:32:51.831Z,155.20
2018-12-27T08:35:17.590Z,167.63
2018-12-27T08:37:43.368Z,144.37
2018-12-27T08:40:29.025Z,162.93
2018-12-27T08:42:54.800Z,149.40
2018-12-27T08:45:20.548Z,162.60
2018-12-27T08:47:46.344Z,147.13
2018-12-27T08:50:12.098Z,164.73
2018-12-27T08:52:37.866Z,126.90
2018-12-27T08:55:45.311Z,149.23
2018-12-27T08:58:11.108Z,153.57
2018-12-27T09:00:36.863Z,150.30
2018-12-27T09:03:02.645Z,141.43
2018-12-27T09:05:28.413Z,153.83
2018-12-27T09:07:54.170Z,152.83
2018-12-27T09:10:19.937Z,144.30
2018-12-27T09:12:45.713Z,141.57
2018-12-27T09:15:11.474Z,143.07
2018-12-27T09:17:37.238Z,150.03
2018-12-27T09:23:17.056Z,134.73
2018-12-27T09:25:42.837Z,144.37
2018-12-27T09:28:08.597Z,145.60
2018-12-27T09:30:34.365Z,152.93
2018-12-27T09:33:00.148Z,144.63
2018-12-27T09:35:45.807Z,123.53
2018-12-27T09:38:11.567Z,149.67
2018-12-27T09:40:37.341Z,147.67
2018-12-27T09:43:03.095Z,128.70
2018-12-27T09:45:28.884Z,134.50
2018-12-27T09:47:54.638Z,138.03
2018-12-27T09:50:20.412Z,130.23
2018-12-27T09:52:46.159Z,133.13
2018-12-27T09:55:11.934Z,138.83
2018-12-27T09:57:37.701Z,145.57
2018-12-27T10:00:45.150Z,139.23
2018-12-27T10:03:10.906Z,121.17
2018-12-27T10:05:36.690Z,123.67
2018-12-27T10:08:02.443Z,116.83
2018-12-27T10:10:28.229Z,131.73
2018-12-27T10:12:53.985Z,106.93
2018-12-27T10:15:19.798Z,118.97
2018-12-27T10:17:47.468Z,104.37
2018-12-27T10:20:13.234Z,100.83
2018-12-27T10:22:39.006Z,126.10
2018-12-27T10:25:46.449Z,110.83
2018-12-27T10:28:32.093Z,114.97
2018-12-27T10:30:59.952Z,111.20
2018-12-27T10:33:25.569Z,110.97
2018-12-27T10:35:51.319Z,97.73
2018-12-27T10:38:17.099Z,109.80
2018-12-27T10:40:42.851Z,109.37
2018-12-27T10:43:08.621Z,104.03
2018-12-27T10:45:34.377Z,115.17
2018-12-27T10:48:00.151Z,112.63
2018-12-27T10:50:25.926Z,111.87
2018-12-27T10:52:51.696Z,117.27
2018-12-27T10:55:17.453Z,124.00
2018-12-27T10:57:43.255Z,125.07
2018-12-27T11:00:50.687Z,133.27
2018-12-27T11:03:16.481Z,125.20
2018-12-27T11:05:48.411Z,116.87
2018-12-27T11:08:09.903Z,130.83
2018-12-27T11:10:35.672Z,127.83
2018-12-27T11:13:01.468Z,121.63
2018-12-27T11:15:27.243Z,122.37
2018-12-27T11:17:53.045Z,120.03
2018-12-27T11:20:18.802Z,119.60
2018-12-27T11:22:44.559Z,129.27
2018-12-27T11:25:10.337Z,128.20
2018-12-27T11:27:36.298Z,122.83
2018-12-27T11:30:02.270Z,124.40
2018-12-27T11:32:28.027Z,127.73
2018-12-27T11:34:53.808Z,126.33
2018-12-27T11:37:19.581Z,117.87
2018-12-27T11:39:45.354Z,121.17
2018-12-27T11:42:11.206Z,130.47
2018-12-27T11:44:37.034Z,131.33
2018-12-27T11:47:02.840Z,119.33
2018-12-27T11:49:28.834Z,127.43
2018-12-27T11:51:54.595Z,130.13
2018-12-27T11:54:40.264Z,124.17
2018-12-27T11:57:06.012Z,124.73
2018-12-27T11:59:31.794Z,132.57
2018-12-27T12:02:39.241Z,119.43
2018-12-27T12:05:46.702Z,129.73
2018-12-27T12:08:12.477Z,145.73
2018-12-27T12:10:38.244Z,140.07
2018-12-27T12:13:04.003Z,139.70
2018-12-27T12:15:29.772Z,118.00
2018-12-27T12:17:55.535Z,139.50
2018-12-27T12:20:21.315Z,121.27
2018-12-27T12:22:47.082Z,131.60
2018-12-27T12:25:12.869Z,126.20
2018-12-27T12:27:38.623Z,140.30
2018-12-27T12:30:46.059Z,127.87
2018-12-27T12:33:11.819Z,114.60
2018-12-27T12:35:37.598Z,123.20
2018-12-27T12:38:03.347Z,130.50
2018-12-27T12:40:29.136Z,125.50
2018-12-27T12:42:54.888Z,118.13
2018-12-27T12:45:20.642Z,136.90
2018-12-27T12:47:46.422Z,120.27
2018-12-27T12:50:12.228Z,129.13
2018-12-27T12:52:39.233Z,119.20
2018-12-27T12:55:05.674Z,85.83
2018-12-27T12:57:31.459Z,109.27
2018-12-27T12:59:57.211Z,115.13
2018-12-27T13:02:22.981Z,124.13
2018-12-27T13:04:48.740Z,123.20
2018-12-27T13:07:14.506Z,125.10
2018-12-27T13:09:40.265Z,115.87
2018-12-27T13:12:06.037Z,131.47
2018-12-27T13:14:31.793Z,123.33
2018-12-27T13:16:57.606Z,130.30
2018-12-27T13:19:23.356Z,133.67
2018-12-27T13:21:49.103Z,124.43
2018-12-27T13:24:14.897Z,129.53
2018-12-27T13:26:40.649Z,136.93
2018-12-27T13:29:06.420Z,145.57
2018-12-27T13:31:32.178Z,133.30
2018-12-27T13:33:57.948Z,146.77
2018-12-27T13:36:25.523Z,133.73
2018-12-27T13:38:51.407Z,148.57
2018-12-27T13:41:17.169Z,135.13
2018-12-27T13:43:42.938Z,127.00
2018-12-27T13:46:08.719Z,132.47
2018-12-27T13:48:34.509Z,133.40
2018-12-27T13:51:20.169Z,130.03
2018-12-27T13:53:45.938Z,117.70
2018-12-27T13:56:11.704Z,116.63
2018-12-27T13:58:37.495Z,119.97
2018-12-27T14:01:03.250Z,118.00
2018-12-27T14:03:29.042Z,110.47
2018-12-27T14:05:54.793Z,114.97
2018-12-27T14:08:20.549Z,123.03
2018-12-27T14:10:46.311Z,118.00
2018-12-27T14:13:12.097Z,113.77
2018-12-27T14:15:37.896Z,113.40
2018-12-27T14:18:03.653Z,105.53
2018-12-27T14:20:29.421Z,110.33
2018-12-27T14:22:55.189Z,103.70
2018-12-27T14:25:20.961Z,103.77
2018-12-27T14:27:46.756Z,101.17
2018-12-27T14:30:12.521Z,97.00
2018-12-27T14:32:38.300Z,96.83
2018-12-27T14:35:04.167Z,91.53
2018-12-27T14:37:29.947Z,93.80
2018-12-27T14:39:55.723Z,89.13
2018-12-27T14:42:21.748Z,85.67
2018-12-27T14:44:49.167Z,79.37
2018-12-27T14:47:14.951Z,80.80
2018-12-27T14:49:40.727Z,83.20
2018-12-27T14:52:06.478Z,80.80
2018-12-27T14:54:32.241Z,71.27
2018-12-27T14:56:59.074Z,79.17
2018-12-27T14:59:25.778Z,82.73
2018-12-27T15:01:51.529Z,82.70
2018-12-27T15:04:17.286Z,82.33
2018-12-27T15:06:47.262Z,77.57
2018-12-27T15:09:10.706Z,80.77
2018-12-27T15:11:36.467Z,85.47
2018-12-27T15:14:02.236Z,78.70
2018-12-27T15:16:28.008Z,78.60
2018-12-27T15:18:53.779Z,86.00
2018-12-27T15:21:19.548Z,86.40
2018-12-27T15:23:45.299Z,90.37
2018-12-27T15:26:11.071Z,89.87
2018-12-27T15:28:36.826Z,89.53
2018-12-27T15:31:02.590Z,87.20
2018-12-27T15:33:28.367Z,100.67
2018-12-27T15:35:54.153Z,95.27
2018-12-27T15:38:19.905Z,109.30
2018-12-27T15:40:45.675Z,101.50
2018-12-27T15:43:11.431Z,112.57
2018-12-27T15:45:37.199Z,122.43
2018-12-27T15:48:02.958Z,119.77
2018-12-27T15:50:28.741Z,110.07
2018-12-27T15:52:54.501Z,121.60
2018-12-27T15:55:20.285Z,120.60
2018-12-27T15:57:46.058Z,137.13
2018-12-27T16:00:11.830Z,124.57
2018-12-27T16:02:37.616Z,144.90
2018-12-27T16:05:03.484Z,134.10
2018-12-27T16:07:29.252Z,124.97
2018-12-27T16:09:55.015Z,134.87
2018-12-27T16:12:20.790Z,133.13
2018-12-27T16:14:46.541Z,126.93
2018-12-27T16:17:12.322Z,135.37
2018-12-27T16:19:38.098Z,130.97
2018-12-27T16:22:03.866Z,140.30
2018-12-27T16:24:29.631Z,133.50
2018-12-27T16:26:55.406Z,132.07
2018-12-27T16:29:21.182Z,125.20
2018-12-27T16:31:46.950Z,143.37
2018-12-27T16:34:12.709Z,130.03
2018-12-27T16:36:38.485Z,144.43
2018-12-27T16:39:45.924Z,133.83
2018-12-27T16:42:11.698Z,150.60
2018-12-27T16:44:37.448Z,126.73
2018-12-27T16:47:03.228Z,135.90
2018-12-27T16:49:28.974Z,121.23
2018-12-27T16:51:54.740Z,131.43
2018-12-27T16:54:20.497Z,133.07
2018-12-27T16:56:46.260Z,118.20
2018-12-27T16:59:12.060Z,130.13
2018-12-27T17:01:37.813Z,118.60
2018-12-27T17:04:03.597Z,127.43
2018-12-27T17:06:29.375Z,129.60
2018-12-27T17:08:55.145Z,130.83
2018-12-27T17:11:20.951Z,135.57
2018-12-27T17:13:46.706Z,124.70
2018-12-27T17:16:12.464Z,130.40
2018-12-27T17:18:38.328Z,131.23
2018-12-27T17:21:04.090Z,140.37
2018-12-27T17:23:29.860Z,136.57
2018-12-27T17:25:55.616Z,140.60
2018-12-27T17:28:21.382Z,147.70
2018-12-27T17:30:47.144Z,137.23
2018-12-27T17:33:12.931Z,150.90
2018-12-27T17:35:38.684Z,155.57
2018-12-27T17:38:04.469Z,153.73
2018-12-27T17:40:30.236Z,149.23
2018-12-27T17:42:56.001Z,167.83
2018-12-27T17:45:21.758Z,167.63
2018-12-27T17:47:47.529Z,173.93
2018-12-27T17:50:13.282Z,172.23
2018-12-27T17:52:39.059Z,185.13
2018-12-27T17:55:04.813Z,194.27
2018-12-27T17:57:30.595Z,205.73
2018-12-27T17:59:56.374Z,197.37
2018-12-27T18:02:22.140Z,201.53
2018-12-27T18:04:47.902Z,223.57
2018-12-27T18:07:13.670Z,250.20
2018-12-27T18:09:39.440Z,190.97
2018-12-27T18:12:05.399Z,221.20
2018-12-27T18:14:31.179Z,229.90
2018-12-27T18:16:56.950Z,220.60
2018-12-27T18:19:22.757Z,220.97
2018-12-27T18:21:48.510Z,221.50
2018-12-27T18:24:14.296Z,217.13
2018-12-27T18:26:40.082Z,204.07
2018-12-27T18:29:05.870Z,236.37
2018-12-27T18:31:31.621Z,161.00
2018-12-27T18:33:57.394Z,156.47
2018-12-27T18:36:23.180Z,160.20
2018-12-27T18:38:48.954Z,184.60
2018-12-27T18:41:14.710Z,138.00
2018-12-27T18:46:12.082Z,155.53
2018-12-27T18:48:37.848Z,111.07
2018-12-27T18:51:03.610Z,127.87
2018-12-27T18:53:29.380Z,123.80
2018-12-27T18:55:55.139Z,116.93
2018-12-27T18:58:20.924Z,93.83
2018-12-27T19:00:47.186Z,102.17
2018-12-27T19:03:12.928Z,107.43
2018-12-27T19:05:38.707Z,89.93
2018-12-27T19:08:04.498Z,99.60
2018-12-27T19:10:30.246Z,96.07
2018-12-27T19:13:15.898Z,93.87
2018-12-27T19:16:01.544Z,81.93
2018-12-27T19:18:27.358Z,45.00
2018-12-27T19:21:34.798Z,65.30
2018-12-27T19:24:00.787Z,52.43
2018-12-27T19:26:26.549Z,54.77
2018-12-27T19:28:52.323Z,59.47
2018-12-27T19:34:25.306Z,53.00
2018-12-27T19:36:51.078Z,64.73
2018-12-27T19:39:16.846Z,59.03
2018-12-27T19:41:42.607Z,65.27
2018-12-27T19:44:08.399Z,72.47
2018-12-27T19:46:34.159Z,66.80
2018-12-27T19:48:59.936Z,74.80
2018-12-27T19:51:25.713Z,99.37
2018-12-27T19:53:51.472Z,100.07
2018-12-27T19:56:17.254Z,122.00
2018-12-27T19:58:43.044Z,125.97
2018-12-27T20:01:08.935Z,123.70
2018-12-27T20:03:34.767Z,130.03
2018-12-27T20:06:00.534Z,114.87
2018-12-27T20:08:26.292Z,115.87
2018-12-27T20:10:52.078Z,128.90
2018-12-27T20:13:17.836Z,129.97
2018-12-27T20:15:43.617Z,119.43
2018-12-27T20:18:09.403Z,131.53
2018-12-27T20:20:35.181Z,122.23
2018-12-27T20:23:00.943Z,120.83
2018-12-27T20:25:26.823Z,151.13
2018-12-27T20:27:52.574Z,179.87
2018-12-27T20:30:18.344Z,224.30
2018-12-27T20:32:44.123Z,201.63
2018-12-27T20:35:09.900Z,182.00
2018-12-27T20:37:35.668Z,200.40
2018-12-27T20:40:01.441Z,192.60
2018-12-27T20:42:27.199Z,209.37
2018-12-27T20:44:52.966Z,199.23
2018-12-27T20:47:18.729Z,202.40
2018-12-27T20:49:44.511Z,207.23
2018-12-27T20:52:10.274Z,201.87
2018-12-27T20:54:36.039Z,192.50
2018-12-27T20:57:01.814Z,190.50
2018-12-27T20:59:27.608Z,159.50
2018-12-27T21:01:53.374Z,154.07
2018-12-27T21:04:19.140Z,165.77
2018-12-27T21:06:44.929Z,140.20
2018-12-27T21:09:10.690Z,152.90
2018-12-27T21:11:36.459Z,145.50
2018-12-27T21:14:02.218Z,127.83
2018-12-27T21:16:28.012Z,141.60
2018-12-27T21:18:53.760Z,153.63
2018-12-27T21:21:19.532Z,163.83
2018-12-27T21:23:45.282Z,164.73
2018-12-27T21:26:11.057Z,151.97
2018-12-27T21:28:36.816Z,162.70
2018-12-27T21:31:02.595Z,158.77
2018-12-27T21:33:28.346Z,165.67
2018-12-27T21:35:54.108Z,139.87
2018-12-27T21:38:21.579Z,121.23
2018-12-27T21:40:47.569Z,114.40
2018-12-27T21:43:13.326Z,92.77
2018-12-27T21:45:39.097Z,79.57
2018-12-27T21:48:04.869Z,81.37
2018-12-27T21:50:50.528Z,79.57
2018-12-27T21:53:16.308Z,86.63
2018-12-27T21:55:42.098Z,88.33
2018-12-27T21:58:07.869Z,78.77
2018-12-27T22:00:33.638Z,75.70
2018-12-27T22:02:59.413Z,77.47
2018-12-27T22:05:25.161Z,77.87
2018-12-27T22:07:50.922Z,71.30
2018-12-27T22:10:16.701Z,81.33
2018-12-27T22:12:42.469Z,71.07
2018-12-27T22:15:08.293Z,64.90
2018-12-27T22:17:34.057Z,66.17
2018-12-27T22:19:59.821Z,75.77
2018-12-27T22:22:25.602Z,64.57
2018-12-27T22:24:51.365Z,61.53
2018-12-27T22:27:17.150Z,38.00
2018-12-27T22:29:42.980Z,50.70
2018-12-27T22:32:08.772Z,46.93
2018-12-27T22:34:34.587Z,53.77
2018-12-27T22:37:00.360Z,51.10
2018-12-27T22:39:26.108Z,43.63
2018-12-27T22:41:51.913Z,37.93
2018-12-27T22:44:17.671Z,43.27
2018-12-27T22:46:43.429Z,49.10
2018-12-27T22:49:09.266Z,45.40
2018-12-27T22:51:35.022Z,49.83
2018-12-27T22:54:00.791Z,53.27
2018-12-27T22:56:26.552Z,52.77
2018-12-27T22:58:52.334Z,60.17
2018-12-27T23:01:18.085Z,62.37
2018-12-27T23:03:43.848Z,54.17
2018-12-27T23:06:09.618Z,57.33
2018-12-27T23:08:35.398Z,55.57
2018-12-27T23:11:01.159Z,74.20
2018-12-27T23:13:26.943Z,73.13
2018-12-27T23:15:52.710Z,60.20
2018-12-27T23:18:18.484Z,75.83
2018-12-27T23:20:44.240Z,65.17
2018-12-27T23:23:10.010Z,60.90
2018-12-27T23:25:35.765Z,65.20
2018-12-27T23:28:01.533Z,59.17
2018-12-27T23:30:27.300Z,60.57
2018-12-27T23:32:53.061Z,63.47
2018-12-27T23:35:18.937Z,50.73
2018-12-27T23:37:44.688Z,53.93
2018-12-27T23:40:10.454Z,63.63
2018-12-27T23:42:36.220Z,48.10
2018-12-27T23:45:02.089Z,48.60
2018-12-27T23:47:27.839Z,53.17
2018-12-27T23:49:53.613Z,47.57
2018-12-27T23:52:19.385Z,50.23
2018-12-27T23:54:45.146Z,56.03
2018-12-27T23:57:10.897Z,53.30
2018-12-27T23:59:36.684Z,54.40
